SKVV/VVC METAR and TAF weather

Enter ICAO airport designator
Station Type Date Time Source
SKVV METAR 2021/04/12 14:00 UTC NOAA

SKVV 121400Z 31006KT 2000 RA OVC010 21/20 Q1017 RMK A3005 BLW MNM MET


Station Type Date Time Source
SKVV Decoded METAR 2021/04/12 14:00 UTC NOAA

Villavicencio / Vanguardia, Colombia (SKVV) 04-10N 073-37W 431M
Apr 12, 2021 - 10:00 AM EDT / 2021.04.12 1400 UTC
Wind: from the NW (310 degrees) at 7 MPH (6 KT):0
Visibility: 1 mile(s):0
Sky conditions: overcast
Weather: rain
Temperature: 69 F (21 C)
Dew Point: 68 F (20 C)
Relative Humidity: 94%
Pressure (altimeter): 30.03 in. Hg (1017 hPa)
ob: SKVV 121400Z 31006KT 2000 RA OVC010 21/20 Q1017 RMK A3005 BLW MNM MET
cycle: 14

Station Type Date Time Source
SKVV TAF UTC NOAA

Error!

Example: see airport list